Aeroporto :
LOGIN :

Iscrizione | Disclaimer

   EN    FR    IT 

 










Sommario :    VFR   VFR Marginale   IFR   IFR Intensivo   IFR Molto Intensivo
Visibilità : 
Base nubi : 
>= 8 km
>= 3000ft
5 / 8 km
1000 / 3000 ft
1500m / 5 km
500 / 1000 ft
800 / 1500m
200 / 500 ft
< 800m
< 200 ft
Simboli :   Temporali  Nebbia  Neve Forte  Precipitazioni Forti  Vento > 20 kt
SIGMETs :   Varie  Temporali  Ghiacco  Turbolenza  Onda orograficha  Ceneri Vulcaniche







- Altitudine del aeroporto : 479 ft
- Codice IATA : DOL
- Carte del aeroporto


LFRG - Deauville

ULTIMO METAR :
  • 201100Z AUTO 18009KT 150V210 9999 BKN035 10/06 Q1023 NOSIG

METARs OBSOLETI :
  • 201030Z AUTO 19007KT 9999 BKN032 09/07 Q1023 NOSIG
  • 201000Z AUTO 18008KT 9999 BKN033 09/06 Q1023 TEMPO BKN006
  • 200930Z AUTO 18007KT 9999 BKN032 07/05 Q1023 TEMPO BKN006
  • 200900Z AUTO 18005KT 150V220 9999 FEW033 07/05 Q1022 TEMPO BKN006
  • 200830Z AUTO 17006KT 9999 BKN035 05/05 Q1022 TEMPO 2000 BR BKN003

TAF TAF LFRG
Valido dal 20 a 09 ore il 20 a 18 ore UTC


200800Z 2009/2018 18008KT 9999 SCT030
PROB30
TEMPO 2009/2011 BKN006
ATIS : +33 2 31 65 65 36
Nessun NOTAM noto per questo aeroporto.



MetMap, La meteo Aeronautica in un colpo d'occhio ! - Copyright ORBIFLY Dicembre 2007 - Disclaimer

ORBIFLY MET'MAP TEAM :

Programmazione e sviluppo : Alexandra Zaïnal
Concezione e sviluppo : Baudouin d'Aumeries
Co-Programmazione e sviluppo : Marc-Olivier Méhu
Supporto tecnico e logistico : Manuel Goepfert
Aiuto per la traduzione : Arnaldo La Scala

Contatto : metmap@orbifly.com




FONTI E CREDITI :

   NOAA